sensor_id;sensor_type;location;lat;lon;timestamp;P1;durP1;ratioP1;P2;durP2;ratioP2
31043;SDS011;17710;52.520;13.352;2023-01-28T00:00:02;12.60;;;3.30;;
31043;SDS011;17710;52.520;13.352;2023-01-28T00:02:30;8.57;;;2.92;;
31043;SDS011;17710;52.520;13.352;2023-01-28T00:04:58;9.57;;;2.97;;
31043;SDS011;17710;52.520;13.352;2023-01-28T00:07:25;7.82;;;2.78;;
31043;SDS011;17710;52.520;13.352;2023-01-28T00:09:52;7.55;;;2.63;;
31043;SDS011;17710;52.520;13.352;2023-01-28T00:12:18;15.40;;;5.03;;
31043;SDS011;17710;52.520;13.352;2023-01-28T00:14:45;12.32;;;3.92;;
31043;SDS011;17710;52.520;13.352;2023-01-28T00:17:12;16.75;;;5.03;;
31043;SDS011;17710;52.520;13.352;2023-01-28T00:19:39;10.90;;;4.00;;
31043;SDS011;17710;52.520;13.352;2023-01-28T00:22:07;12.63;;;4.60;;
31043;SDS011;17710;52.520;13.352;2023-01-28T00:24:33;36.40;;;10.45;;
31043;SDS011;17710;52.520;13.352;2023-01-28T00:26:59;47.28;;;14.25;;
31043;SDS011;17710;52.520;13.352;2023-01-28T00:29:26;13.13;;;4.28;;
31043;SDS011;17710;52.520;13.352;2023-01-28T00:31:52;12.35;;;4.03;;
31043;SDS011;17710;52.520;13.352;2023-01-28T00:34:19;10.90;;;3.40;;
31043;SDS011;17710;52.520;13.352;2023-01-28T00:36:46;7.57;;;2.75;;
31043;SDS011;17710;52.520;13.352;2023-01-28T00:39:22;56.10;;;13.93;;
31043;SDS011;17710;52.520;13.352;2023-01-28T00:41:50;40.92;;;10.77;;
31043;SDS011;17710;52.520;13.352;2023-01-28T00:44:16;13.35;;;3.47;;
31043;SDS011;17710;52.520;13.352;2023-01-28T00:46:43;33.45;;;8.60;;
31043;SDS011;17710;52.520;13.352;2023-01-28T00:49:10;10.70;;;3.65;;
31043;SDS011;17710;52.520;13.352;2023-01-28T00:51:36;7.95;;;2.67;;
31043;SDS011;17710;52.520;13.352;2023-01-28T00:54:02;12.80;;;3.55;;
31043;SDS011;17710;52.520;13.352;2023-01-28T00:56:31;18.80;;;5.40;;
31043;SDS011;17710;52.520;13.352;2023-01-28T00:58:57;9.93;;;3.00;;
31043;SDS011;17710;52.520;13.352;2023-01-28T01:01:25;15.63;;;4.38;;
31043;SDS011;17710;52.520;13.352;2023-01-28T01:03:52;11.43;;;4.07;;
31043;SDS011;17710;52.520;13.352;2023-01-28T01:06:26;8.18;;;3.28;;
31043;SDS011;17710;52.520;13.352;2023-01-28T01:08:53;9.23;;;2.63;;
31043;SDS011;17710;52.520;13.352;2023-01-28T01:11:20;8.57;;;2.40;;
31043;SDS011;17710;52.520;13.352;2023-01-28T01:13:50;9.32;;;2.90;;
31043;SDS011;17710;52.520;13.352;2023-01-28T01:16:18;11.52;;;3.00;;
31043;SDS011;17710;52.520;13.352;2023-01-28T01:18:46;12.10;;;3.42;;
31043;SDS011;17710;52.520;13.352;2023-01-28T01:21:13;7.97;;;3.22;;
31043;SDS011;17710;52.520;13.352;2023-01-28T01:23:41;10.13;;;3.30;;
31043;SDS011;17710;52.520;13.352;2023-01-28T01:26:10;8.52;;;3.08;;
31043;SDS011;17710;52.520;13.352;2023-01-28T01:28:37;7.60;;;2.75;;
31043;SDS011;17710;52.520;13.352;2023-01-28T01:31:05;5.10;;;2.65;;
31043;SDS011;17710;52.520;13.352;2023-01-28T01:33:33;8.00;;;2.70;;
31043;SDS011;17710;52.520;13.352;2023-01-28T01:35:59;11.23;;;3.13;;
31043;SDS011;17710;52.520;13.352;2023-01-28T01:38:26;9.05;;;3.05;;
31043;SDS011;17710;52.520;13.352;2023-01-28T01:40:55;5.38;;;2.42;;
31043;SDS011;17710;52.520;13.352;2023-01-28T01:43:22;9.07;;;2.58;;
31043;SDS011;17710;52.520;13.352;2023-01-28T01:45:49;8.95;;;3.25;;
31043;SDS011;17710;52.520;13.352;2023-01-28T01:48:20;9.00;;;2.97;;
31043;SDS011;17710;52.520;13.352;2023-01-28T01:50:51;6.05;;;2.40;;
31043;SDS011;17710;52.520;13.352;2023-01-28T01:53:21;4.68;;;1.90;;
31043;SDS011;17710;52.520;13.352;2023-01-28T01:55:50;8.48;;;2.38;;
31043;SDS011;17710;52.520;13.352;2023-01-28T01:58:21;6.63;;;2.58;;
31043;SDS011;17710;52.520;13.352;2023-01-28T02:00:51;5.75;;;2.22;;
31043;SDS011;17710;52.520;13.352;2023-01-28T02:03:20;6.97;;;3.17;;
31043;SDS011;17710;52.520;13.352;2023-01-28T02:05:53;7.38;;;2.53;;
31043;SDS011;17710;52.520;13.352;2023-01-28T02:08:19;4.00;;;2.17;;
31043;SDS011;17710;52.520;13.352;2023-01-28T02:10:46;7.55;;;2.50;;
31043;SDS011;17710;52.520;13.352;2023-01-28T02:13:15;7.35;;;2.72;;
31043;SDS011;17710;52.520;13.352;2023-01-28T02:15:44;7.38;;;2.75;;
31043;SDS011;17710;52.520;13.352;2023-01-28T02:18:11;6.35;;;2.33;;
31043;SDS011;17710;52.520;13.352;2023-01-28T02:20:43;4.03;;;2.10;;
31043;SDS011;17710;52.520;13.352;2023-01-28T02:23:35;5.70;;;2.58;;
31043;SDS011;17710;52.520;13.352;2023-01-28T02:28:52;9.23;;;2.45;;
31043;SDS011;17710;52.520;13.352;2023-01-28T02:31:22;8.93;;;2.90;;
31043;SDS011;17710;52.520;13.352;2023-01-28T02:33:56;8.48;;;2.60;;
31043;SDS011;17710;52.520;13.352;2023-01-28T02:36:29;6.13;;;2.70;;
31043;SDS011;17710;52.520;13.352;2023-01-28T02:39:06;5.68;;;2.30;;
31043;SDS011;17710;52.520;13.352;2023-01-28T02:41:35;8.80;;;2.72;;
31043;SDS011;17710;52.520;13.352;2023-01-28T02:44:07;5.20;;;2.33;;
31043;SDS011;17710;52.520;13.352;2023-01-28T02:46:34;11.05;;;3.13;;
31043;SDS011;17710;52.520;13.352;2023-01-28T02:49:20;8.75;;;2.30;;
31043;SDS011;17710;52.520;13.352;2023-01-28T02:52:01;9.50;;;2.30;;
31043;SDS011;17710;52.520;13.352;2023-01-28T02:54:41;6.88;;;2.13;;
31043;SDS011;17710;52.520;13.352;2023-01-28T02:57:18;6.38;;;1.85;;
31043;SDS011;17710;52.520;13.352;2023-01-28T02:59:58;4.68;;;1.75;;
31043;SDS011;17710;52.520;13.352;2023-01-28T03:02:31;7.97;;;2.60;;
31043;SDS011;17710;52.520;13.352;2023-01-28T03:05:03;8.27;;;2.60;;
31043;SDS011;17710;52.520;13.352;2023-01-28T03:07:34;9.48;;;2.05;;
31043;SDS011;17710;52.520;13.352;2023-01-28T03:10:04;8.15;;;2.33;;
31043;SDS011;17710;52.520;13.352;2023-01-28T03:12:34;5.78;;;1.88;;
31043;SDS011;17710;52.520;13.352;2023-01-28T03:15:21;6.22;;;1.90;;
31043;SDS011;17710;52.520;13.352;2023-01-28T03:18:08;5.65;;;1.95;;
31043;SDS011;17710;52.520;13.352;2023-01-28T03:21:00;8.07;;;2.17;;
31043;SDS011;17710;52.520;13.352;2023-01-28T03:23:50;6.00;;;1.88;;
31043;SDS011;17710;52.520;13.352;2023-01-28T03:26:40;7.00;;;2.05;;
31043;SDS011;17710;52.520;13.352;2023-01-28T03:29:30;9.18;;;2.10;;
31043;SDS011;17710;52.520;13.352;2023-01-28T03:32:17;7.72;;;2.05;;
31043;SDS011;17710;52.520;13.352;2023-01-28T03:35:03;4.38;;;2.00;;
31043;SDS011;17710;52.520;13.352;2023-01-28T03:37:51;3.45;;;1.52;;
31043;SDS011;17710;52.520;13.352;2023-01-28T03:40:18;6.20;;;2.63;;
31043;SDS011;17710;52.520;13.352;2023-01-28T03:42:45;7.43;;;1.60;;
31043;SDS011;17710;52.520;13.352;2023-01-28T03:45:12;4.95;;;1.90;;
31043;SDS011;17710;52.520;13.352;2023-01-28T03:47:40;5.07;;;1.90;;
31043;SDS011;17710;52.520;13.352;2023-01-28T03:50:08;6.50;;;1.60;;
31043;SDS011;17710;52.520;13.352;2023-01-28T03:52:35;5.10;;;2.03;;
31043;SDS011;17710;52.520;13.352;2023-01-28T03:55:02;3.47;;;1.60;;
31043;SDS011;17710;52.520;13.352;2023-01-28T03:57:37;4.20;;;1.80;;
31043;SDS011;17710;52.520;13.352;2023-01-28T04:00:04;4.22;;;2.00;;
31043;SDS011;17710;52.520;13.352;2023-01-28T04:02:31;6.68;;;1.98;;
31043;SDS011;17710;52.520;13.352;2023-01-28T04:05:00;3.65;;;1.58;;
31043;SDS011;17710;52.520;13.352;2023-01-28T04:07:36;5.20;;;1.70;;
31043;SDS011;17710;52.520;13.352;2023-01-28T04:10:03;4.85;;;1.75;;
31043;SDS011;17710;52.520;13.352;2023-01-28T04:12:32;4.43;;;1.50;;
31043;SDS011;17710;52.520;13.352;2023-01-28T04:15:01;4.70;;;1.40;;
31043;SDS011;17710;52.520;13.352;2023-01-28T04:17:39;3.08;;;1.20;;
31043;SDS011;17710;52.520;13.352;2023-01-28T04:20:08;7.50;;;2.15;;
31043;SDS011;17710;52.520;13.352;2023-01-28T04:22:36;3.55;;;1.42;;
31043;SDS011;17710;52.520;13.352;2023-01-28T04:25:02;3.13;;;1.42;;
31043;SDS011;17710;52.520;13.352;2023-01-28T04:27:29;2.25;;;1.38;;
31043;SDS011;17710;52.520;13.352;2023-01-28T04:29:55;5.93;;;1.85;;
31043;SDS011;17710;52.520;13.352;2023-01-28T04:32:22;4.93;;;1.55;;
31043;SDS011;17710;52.520;13.352;2023-01-28T04:34:48;6.07;;;1.98;;
31043;SDS011;17710;52.520;13.352;2023-01-28T04:37:16;3.38;;;1.73;;
31043;SDS011;17710;52.520;13.352;2023-01-28T04:39:42;5.22;;;1.45;;
31043;SDS011;17710;52.520;13.352;2023-01-28T04:42:09;2.40;;;1.55;;
31043;SDS011;17710;52.520;13.352;2023-01-28T04:44:35;5.55;;;1.70;;
31043;SDS011;17710;52.520;13.352;2023-01-28T04:47:02;4.70;;;2.33;;
31043;SDS011;17710;52.520;13.352;2023-01-28T04:49:28;2.47;;;1.20;;
31043;SDS011;17710;52.520;13.352;2023-01-28T04:51:54;4.65;;;1.63;;
31043;SDS011;17710;52.520;13.352;2023-01-28T04:54:22;5.97;;;1.60;;
31043;SDS011;17710;52.520;13.352;2023-01-28T04:56:48;3.05;;;1.50;;
31043;SDS011;17710;52.520;13.352;2023-01-28T04:59:15;3.92;;;1.40;;
31043;SDS011;17710;52.520;13.352;2023-01-28T05:01:42;4.88;;;1.35;;
31043;SDS011;17710;52.520;13.352;2023-01-28T05:04:08;3.25;;;2.05;;
31043;SDS011;17710;52.520;13.352;2023-01-28T05:06:34;2.88;;;1.70;;
31043;SDS011;17710;52.520;13.352;2023-01-28T05:09:01;3.38;;;1.67;;
31043;SDS011;17710;52.520;13.352;2023-01-28T05:11:29;4.10;;;1.65;;
31043;SDS011;17710;52.520;13.352;2023-01-28T05:13:55;4.53;;;1.75;;
31043;SDS011;17710;52.520;13.352;2023-01-28T05:16:22;3.35;;;1.45;;
31043;SDS011;17710;52.520;13.352;2023-01-28T05:18:48;6.60;;;2.00;;
31043;SDS011;17710;52.520;13.352;2023-01-28T05:21:15;2.90;;;1.30;;
31043;SDS011;17710;52.520;13.352;2023-01-28T05:23:42;3.85;;;1.48;;
31043;SDS011;17710;52.520;13.352;2023-01-28T05:26:11;4.72;;;1.60;;
31043;SDS011;17710;52.520;13.352;2023-01-28T05:28:39;1.80;;;1.10;;
31043;SDS011;17710;52.520;13.352;2023-01-28T05:31:06;3.45;;;1.35;;
31043;SDS011;17710;52.520;13.352;2023-01-28T05:33:32;3.40;;;1.70;;
31043;SDS011;17710;52.520;13.352;2023-01-28T05:35:59;2.50;;;1.40;;
31043;SDS011;17710;52.520;13.352;2023-01-28T05:38:25;2.97;;;1.77;;
31043;SDS011;17710;52.520;13.352;2023-01-28T05:40:52;6.47;;;1.90;;
31043;SDS011;17710;52.520;13.352;2023-01-28T05:43:18;6.70;;;2.58;;
31043;SDS011;17710;52.520;13.352;2023-01-28T05:45:46;5.78;;;2.20;;
31043;SDS011;17710;52.520;13.352;2023-01-28T05:48:13;9.98;;;4.70;;
31043;SDS011;17710;52.520;13.352;2023-01-28T05:50:40;11.35;;;5.57;;
31043;SDS011;17710;52.520;13.352;2023-01-28T05:53:06;10.45;;;5.85;;
31043;SDS011;17710;52.520;13.352;2023-01-28T05:55:34;11.52;;;6.03;;
31043;SDS011;17710;52.520;13.352;2023-01-28T05:58:00;10.55;;;5.40;;
31043;SDS011;17710;52.520;13.352;2023-01-28T06:00:26;13.73;;;6.72;;
31043;SDS011;17710;52.520;13.352;2023-01-28T06:02:54;14.25;;;7.30;;
31043;SDS011;17710;52.520;13.352;2023-01-28T06:05:21;16.48;;;7.32;;
31043;SDS011;17710;52.520;13.352;2023-01-28T06:07:47;19.52;;;8.10;;
31043;SDS011;17710;52.520;13.352;2023-01-28T06:10:14;16.75;;;7.18;;
31043;SDS011;17710;52.520;13.352;2023-01-28T06:12:41;15.82;;;7.90;;
31043;SDS011;17710;52.520;13.352;2023-01-28T06:15:08;13.95;;;6.28;;
31043;SDS011;17710;52.520;13.352;2023-01-28T06:17:35;14.77;;;6.95;;
31043;SDS011;17710;52.520;13.352;2023-01-28T06:20:04;13.27;;;6.63;;
31043;SDS011;17710;52.520;13.352;2023-01-28T06:22:32;12.55;;;7.28;;
31043;SDS011;17710;52.520;13.352;2023-01-28T06:24:58;13.20;;;7.10;;
31043;SDS011;17710;52.520;13.352;2023-01-28T06:27:25;15.23;;;7.25;;
31043;SDS011;17710;52.520;13.352;2023-01-28T06:29:51;15.27;;;7.20;;
31043;SDS011;17710;52.520;13.352;2023-01-28T06:32:18;15.35;;;7.30;;
31043;SDS011;17710;52.520;13.352;2023-01-28T06:34:45;12.18;;;6.07;;
31043;SDS011;17710;52.520;13.352;2023-01-28T06:37:13;12.07;;;6.10;;
31043;SDS011;17710;52.520;13.352;2023-01-28T06:39:40;6.72;;;3.63;;
31043;SDS011;17710;52.520;13.352;2023-01-28T06:42:06;9.40;;;4.63;;
31043;SDS011;17710;52.520;13.352;2023-01-28T06:44:33;9.63;;;3.67;;
31043;SDS011;17710;52.520;13.352;2023-01-28T06:47:00;9.48;;;3.00;;
31043;SDS011;17710;52.520;13.352;2023-01-28T06:49:26;4.13;;;2.40;;
31043;SDS011;17710;52.520;13.352;2023-01-28T06:51:53;5.97;;;2.67;;
31043;SDS011;17710;52.520;13.352;2023-01-28T06:54:20;5.40;;;2.55;;
31043;SDS011;17710;52.520;13.352;2023-01-28T06:56:47;6.50;;;2.90;;
31043;SDS011;17710;52.520;13.352;2023-01-28T06:59:13;5.88;;;2.70;;
31043;SDS011;17710;52.520;13.352;2023-01-28T07:01:40;4.25;;;2.45;;
31043;SDS011;17710;52.520;13.352;2023-01-28T07:04:06;4.90;;;2.95;;
31043;SDS011;17710;52.520;13.352;2023-01-28T07:06:33;7.20;;;2.60;;
31043;SDS011;17710;52.520;13.352;2023-01-28T07:09:02;4.82;;;2.50;;
31043;SDS011;17710;52.520;13.352;2023-01-28T07:11:30;4.60;;;2.47;;
31043;SDS011;17710;52.520;13.352;2023-01-28T07:13:56;6.00;;;2.15;;
31043;SDS011;17710;52.520;13.352;2023-01-28T07:16:23;7.05;;;2.47;;
31043;SDS011;17710;52.520;13.352;2023-01-28T07:18:49;5.30;;;2.40;;
31043;SDS011;17710;52.520;13.352;2023-01-28T07:21:15;5.93;;;2.00;;
31043;SDS011;17710;52.520;13.352;2023-01-28T07:23:42;4.68;;;2.47;;
31043;SDS011;17710;52.520;13.352;2023-01-28T07:26:09;4.28;;;1.98;;
31043;SDS011;17710;52.520;13.352;2023-01-28T07:28:37;6.47;;;2.03;;
31043;SDS011;17710;52.520;13.352;2023-01-28T07:31:03;3.28;;;2.00;;
31043;SDS011;17710;52.520;13.352;2023-01-28T07:33:30;3.30;;;1.00;;
31043;SDS011;17710;52.520;13.352;2023-01-28T07:35:56;1.98;;;1.17;;
31043;SDS011;17710;52.520;13.352;2023-01-28T07:38:23;2.75;;;1.27;;
31043;SDS011;17710;52.520;13.352;2023-01-28T07:40:49;4.60;;;1.30;;
31043;SDS011;17710;52.520;13.352;2023-01-28T07:43:16;3.50;;;1.98;;
31043;SDS011;17710;52.520;13.352;2023-01-28T07:45:43;9.25;;;2.90;;
31043;SDS011;17710;52.520;13.352;2023-01-28T07:48:10;6.38;;;2.03;;
31043;SDS011;17710;52.520;13.352;2023-01-28T07:50:37;5.53;;;2.10;;
31043;SDS011;17710;52.520;13.352;2023-01-28T07:53:05;3.83;;;1.70;;
31043;SDS011;17710;52.520;13.352;2023-01-28T07:55:34;6.07;;;1.52;;
31043;SDS011;17710;52.520;13.352;2023-01-28T07:58:02;2.10;;;1.13;;
31043;SDS011;17710;52.520;13.352;2023-01-28T08:00:30;4.20;;;1.50;;
31043;SDS011;17710;52.520;13.352;2023-01-28T08:02:59;3.40;;;1.48;;
31043;SDS011;17710;52.520;13.352;2023-01-28T08:05:28;3.50;;;1.45;;
31043;SDS011;17710;52.520;13.352;2023-01-28T08:08:03;4.88;;;1.20;;
31043;SDS011;17710;52.520;13.352;2023-01-28T08:10:30;5.30;;;1.08;;
31043;SDS011;17710;52.520;13.352;2023-01-28T08:12:56;2.40;;;1.27;;
31043;SDS011;17710;52.520;13.352;2023-01-28T08:15:24;1.65;;;1.27;;
31043;SDS011;17710;52.520;13.352;2023-01-28T08:17:52;3.88;;;0.98;;
31043;SDS011;17710;52.520;13.352;2023-01-28T08:20:21;3.10;;;1.80;;
31043;SDS011;17710;52.520;13.352;2023-01-28T08:22:47;2.42;;;1.20;;
31043;SDS011;17710;52.520;13.352;2023-01-28T08:25:14;4.85;;;1.80;;
31043;SDS011;17710;52.520;13.352;2023-01-28T08:27:41;3.50;;;1.20;;
31043;SDS011;17710;52.520;13.352;2023-01-28T08:30:07;3.83;;;1.00;;
31043;SDS011;17710;52.520;13.352;2023-01-28T08:32:35;4.22;;;1.42;;
31043;SDS011;17710;52.520;13.352;2023-01-28T08:35:02;2.63;;;1.20;;
31043;SDS011;17710;52.520;13.352;2023-01-28T08:37:30;9.15;;;1.85;;
31043;SDS011;17710;52.520;13.352;2023-01-28T08:39:56;4.78;;;1.25;;
31043;SDS011;17710;52.520;13.352;2023-01-28T08:42:23;2.83;;;1.30;;
31043;SDS011;17710;52.520;13.352;2023-01-28T08:44:49;7.55;;;1.50;;
31043;SDS011;17710;52.520;13.352;2023-01-28T08:47:16;4.18;;;1.70;;
31043;SDS011;17710;52.520;13.352;2023-01-28T08:49:42;3.78;;;1.73;;
31043;SDS011;17710;52.520;13.352;2023-01-28T08:52:09;3.25;;;1.65;;
31043;SDS011;17710;52.520;13.352;2023-01-28T08:54:37;8.70;;;1.50;;
31043;SDS011;17710;52.520;13.352;2023-01-28T08:57:03;4.28;;;1.83;;
31043;SDS011;17710;52.520;13.352;2023-01-28T08:59:30;4.60;;;1.58;;
31043;SDS011;17710;52.520;13.352;2023-01-28T09:01:56;2.10;;;1.30;;
31043;SDS011;17710;52.520;13.352;2023-01-28T09:04:23;6.00;;;1.52;;
31043;SDS011;17710;52.520;13.352;2023-01-28T09:06:49;3.90;;;1.27;;
31043;SDS011;17710;52.520;13.352;2023-01-28T09:09:16;9.15;;;1.80;;
31043;SDS011;17710;52.520;13.352;2023-01-28T09:11:44;1.95;;;0.93;;
31043;SDS011;17710;52.520;13.352;2023-01-28T09:14:13;5.10;;;1.13;;
31043;SDS011;17710;52.520;13.352;2023-01-28T09:16:40;3.35;;;1.08;;
31043;SDS011;17710;52.520;13.352;2023-01-28T09:19:06;1.73;;;1.15;;
31043;SDS011;17710;52.520;13.352;2023-01-28T09:21:32;7.20;;;1.60;;
31043;SDS011;17710;52.520;13.352;2023-01-28T09:23:59;2.58;;;1.17;;
31043;SDS011;17710;52.520;13.352;2023-01-28T09:26:25;2.42;;;1.00;;
31043;SDS011;17710;52.520;13.352;2023-01-28T09:28:53;2.03;;;0.60;;
31043;SDS011;17710;52.520;13.352;2023-01-28T09:31:20;3.47;;;1.00;;
31043;SDS011;17710;52.520;13.352;2023-01-28T09:33:47;3.35;;;1.30;;
31043;SDS011;17710;52.520;13.352;2023-01-28T09:36:20;1.38;;;0.60;;
31043;SDS011;17710;52.520;13.352;2023-01-28T09:38:47;2.60;;;0.68;;
31043;SDS011;17710;52.520;13.352;2023-01-28T09:41:22;3.63;;;1.00;;
31043;SDS011;17710;52.520;13.352;2023-01-28T09:43:55;2.92;;;0.70;;
31043;SDS011;17710;52.520;13.352;2023-01-28T09:46:33;3.75;;;0.60;;
31043;SDS011;17710;52.520;13.352;2023-01-28T09:49:02;4.28;;;0.70;;
31043;SDS011;17710;52.520;13.352;2023-01-28T09:51:40;1.95;;;0.60;;
31043;SDS011;17710;52.520;13.352;2023-01-28T09:54:11;4.35;;;0.40;;
31043;SDS011;17710;52.520;13.352;2023-01-28T09:59:17;3.08;;;0.75;;
31043;SDS011;17710;52.520;13.352;2023-01-28T10:01:46;1.25;;;0.60;;
31043;SDS011;17710;52.520;13.352;2023-01-28T10:04:36;4.50;;;0.60;;
31043;SDS011;17710;52.520;13.352;2023-01-28T10:08:10;1.90;;;0.65;;
31043;SDS011;17710;52.520;13.352;2023-01-28T10:10:49;3.65;;;0.40;;
31043;SDS011;17710;52.520;13.352;2023-01-28T10:13:23;0.73;;;0.43;;
31043;SDS011;17710;52.520;13.352;2023-01-28T10:16:07;2.00;;;0.38;;
31043;SDS011;17710;52.520;13.352;2023-01-28T10:18:42;1.20;;;0.60;;
31043;SDS011;17710;52.520;13.352;2023-01-28T10:21:12;6.25;;;0.80;;
31043;SDS011;17710;52.520;13.352;2023-01-28T10:23:45;1.20;;;0.40;;
31043;SDS011;17710;52.520;13.352;2023-01-28T10:26:21;3.55;;;1.27;;
31043;SDS011;17710;52.520;13.352;2023-01-28T10:28:51;3.95;;;1.50;;
31043;SDS011;17710;52.520;13.352;2023-01-28T10:31:22;3.65;;;1.13;;
31043;SDS011;17710;52.520;13.352;2023-01-28T10:33:55;1.48;;;0.50;;
31043;SDS011;17710;52.520;13.352;2023-01-28T10:36:22;2.42;;;0.60;;
31043;SDS011;17710;52.520;13.352;2023-01-28T10:38:48;1.70;;;0.60;;
31043;SDS011;17710;52.520;13.352;2023-01-28T10:41:18;4.38;;;0.70;;
31043;SDS011;17710;52.520;13.352;2023-01-28T10:43:47;4.88;;;1.08;;
31043;SDS011;17710;52.520;13.352;2023-01-28T10:46:16;2.50;;;0.93;;
31043;SDS011;17710;52.520;13.352;2023-01-28T10:48:47;1.48;;;0.88;;
31043;SDS011;17710;52.520;13.352;2023-01-28T10:51:32;3.35;;;1.15;;
31043;SDS011;17710;52.520;13.352;2023-01-28T10:54:00;5.50;;;1.27;;
31043;SDS011;17710;52.520;13.352;2023-01-28T10:56:27;7.30;;;1.10;;
31043;SDS011;17710;52.520;13.352;2023-01-28T10:58:56;2.05;;;0.85;;
31043;SDS011;17710;52.520;13.352;2023-01-28T11:01:36;1.70;;;0.70;;
31043;SDS011;17710;52.520;13.352;2023-01-28T11:04:12;3.17;;;1.10;;
31043;SDS011;17710;52.520;13.352;2023-01-28T11:06:42;2.55;;;1.00;;
31043;SDS011;17710;52.520;13.352;2023-01-28T11:09:21;8.93;;;2.23;;
31043;SDS011;17710;52.520;13.352;2023-01-28T11:11:49;6.65;;;2.83;;
31043;SDS011;17710;52.520;13.352;2023-01-28T11:14:19;4.50;;;0.95;;
31043;SDS011;17710;52.520;13.352;2023-01-28T11:16:47;2.80;;;1.25;;
31043;SDS011;17710;52.520;13.352;2023-01-28T11:19:17;1.95;;;0.95;;
31043;SDS011;17710;52.520;13.352;2023-01-28T11:21:48;2.30;;;0.80;;
31043;SDS011;17710;52.520;13.352;2023-01-28T11:24:17;2.40;;;1.00;;
31043;SDS011;17710;52.520;13.352;2023-01-28T11:26:47;2.45;;;0.73;;
31043;SDS011;17710;52.520;13.352;2023-01-28T11:29:23;1.30;;;0.73;;
31043;SDS011;17710;52.520;13.352;2023-01-28T11:31:52;3.28;;;0.88;;
31043;SDS011;17710;52.520;13.352;2023-01-28T11:34:23;2.60;;;0.77;;
31043;SDS011;17710;52.520;13.352;2023-01-28T11:36:52;2.40;;;0.68;;
31043;SDS011;17710;52.520;13.352;2023-01-28T11:39:20;2.67;;;0.95;;
31043;SDS011;17710;52.520;13.352;2023-01-28T11:41:50;4.75;;;1.80;;
31043;SDS011;17710;52.520;13.352;2023-01-28T11:44:18;3.45;;;1.50;;
31043;SDS011;17710;52.520;13.352;2023-01-28T11:46:50;3.20;;;0.80;;
31043;SDS011;17710;52.520;13.352;2023-01-28T11:49:29;3.95;;;1.10;;
31043;SDS011;17710;52.520;13.352;2023-01-28T11:52:09;8.75;;;3.50;;
31043;SDS011;17710;52.520;13.352;2023-01-28T11:54:46;6.10;;;2.70;;
31043;SDS011;17710;52.520;13.352;2023-01-28T11:57:24;2.53;;;1.20;;
31043;SDS011;17710;52.520;13.352;2023-01-28T12:00:03;4.55;;;1.25;;
31043;SDS011;17710;52.520;13.352;2023-01-28T12:02:50;2.20;;;0.93;;
31043;SDS011;17710;52.520;13.352;2023-01-28T12:05:34;3.67;;;1.10;;
31043;SDS011;17710;52.520;13.352;2023-01-28T12:08:19;4.20;;;0.90;;
31043;SDS011;17710;52.520;13.352;2023-01-28T12:10:52;2.88;;;1.38;;
31043;SDS011;17710;52.520;13.352;2023-01-28T12:13:41;4.00;;;1.20;;
31043;SDS011;17710;52.520;13.352;2023-01-28T12:16:20;4.43;;;0.90;;
31043;SDS011;17710;52.520;13.352;2023-01-28T12:19:08;7.18;;;1.67;;
31043;SDS011;17710;52.520;13.352;2023-01-28T12:22:03;2.42;;;1.17;;
31043;SDS011;17710;52.520;13.352;2023-01-28T12:24:57;4.38;;;1.20;;
31043;SDS011;17710;52.520;13.352;2023-01-28T12:27:40;2.42;;;0.90;;
31043;SDS011;17710;52.520;13.352;2023-01-28T12:30:18;1.85;;;0.75;;
31043;SDS011;17710;52.520;13.352;2023-01-28T12:33:02;5.43;;;0.70;;
31043;SDS011;17710;52.520;13.352;2023-01-28T12:35:49;0.80;;;0.80;;
31043;SDS011;17710;52.520;13.352;2023-01-28T12:38:30;2.08;;;0.80;;
31043;SDS011;17710;52.520;13.352;2023-01-28T12:41:06;1.80;;;0.73;;
31043;SDS011;17710;52.520;13.352;2023-01-28T12:43:42;2.20;;;0.80;;
31043;SDS011;17710;52.520;13.352;2023-01-28T12:46:21;8.52;;;4.13;;
31043;SDS011;17710;52.520;13.352;2023-01-28T12:48:53;4.22;;;1.67;;
31043;SDS011;17710;52.520;13.352;2023-01-28T12:51:26;1.23;;;0.60;;
31043;SDS011;17710;52.520;13.352;2023-01-28T12:53:57;1.67;;;0.65;;
31043;SDS011;17710;52.520;13.352;2023-01-28T12:56:30;2.13;;;0.50;;
31043;SDS011;17710;52.520;13.352;2023-01-28T12:59:01;4.70;;;1.00;;
31043;SDS011;17710;52.520;13.352;2023-01-28T13:01:34;2.22;;;0.70;;
31043;SDS011;17710;52.520;13.352;2023-01-28T13:04:08;1.00;;;0.70;;
31043;SDS011;17710;52.520;13.352;2023-01-28T13:06:40;1.95;;;0.70;;
31043;SDS011;17710;52.520;13.352;2023-01-28T13:09:14;1.52;;;0.80;;
31043;SDS011;17710;52.520;13.352;2023-01-28T13:11:44;4.63;;;0.70;;
31043;SDS011;17710;52.520;13.352;2023-01-28T13:14:13;1.42;;;0.90;;
31043;SDS011;17710;52.520;13.352;2023-01-28T13:16:40;14.85;;;5.05;;
31043;SDS011;17710;52.520;13.352;2023-01-28T13:19:08;4.85;;;1.17;;
31043;SDS011;17710;52.520;13.352;2023-01-28T13:21:48;3.67;;;1.00;;
31043;SDS011;17710;52.520;13.352;2023-01-28T13:24:29;2.83;;;0.70;;
31043;SDS011;17710;52.520;13.352;2023-01-28T13:27:09;2.30;;;0.70;;
31043;SDS011;17710;52.520;13.352;2023-01-28T13:29:38;2.17;;;0.70;;
31043;SDS011;17710;52.520;13.352;2023-01-28T13:34:58;2.08;;;1.00;;
31043;SDS011;17710;52.520;13.352;2023-01-28T13:37:28;0.57;;;0.50;;
31043;SDS011;17710;52.520;13.352;2023-01-28T13:40:01;1.77;;;0.63;;
31043;SDS011;17710;52.520;13.352;2023-01-28T13:42:34;3.60;;;1.17;;
31043;SDS011;17710;52.520;13.352;2023-01-28T13:45:18;0.68;;;0.32;;
31043;SDS011;17710;52.520;13.352;2023-01-28T13:47:47;0.40;;;0.22;;
31043;SDS011;17710;52.520;13.352;2023-01-28T13:50:19;2.58;;;0.70;;
31043;SDS011;17710;52.520;13.352;2023-01-28T13:52:52;2.47;;;0.93;;
31043;SDS011;17710;52.520;13.352;2023-01-28T13:55:26;2.55;;;0.68;;
31043;SDS011;17710;52.520;13.352;2023-01-28T14:01:37;4.75;;;0.93;;
31043;SDS011;17710;52.520;13.352;2023-01-28T14:07:21;2.78;;;0.77;;
31043;SDS011;17710;52.520;13.352;2023-01-28T14:10:10;1.25;;;0.60;;
31043;SDS011;17710;52.520;13.352;2023-01-28T14:12:55;0.43;;;0.43;;
31043;SDS011;17710;52.520;13.352;2023-01-28T14:15:44;2.35;;;0.55;;
31043;SDS011;17710;52.520;13.352;2023-01-28T14:18:23;0.80;;;0.45;;
31043;SDS011;17710;52.520;13.352;2023-01-28T14:20:52;2.65;;;0.75;;
31043;SDS011;17710;52.520;13.352;2023-01-28T14:23:21;0.77;;;0.40;;
31043;SDS011;17710;52.520;13.352;2023-01-28T14:25:53;4.72;;;0.85;;
31043;SDS011;17710;52.520;13.352;2023-01-28T14:28:34;3.10;;;0.80;;
31043;SDS011;17710;52.520;13.352;2023-01-28T14:31:09;1.98;;;1.27;;
31043;SDS011;17710;52.520;13.352;2023-01-28T14:33:41;0.98;;;0.50;;
31043;SDS011;17710;52.520;13.352;2023-01-28T14:36:09;1.85;;;0.68;;
31043;SDS011;17710;52.520;13.352;2023-01-28T14:38:37;2.67;;;0.93;;
31043;SDS011;17710;52.520;13.352;2023-01-28T14:41:05;1.38;;;0.80;;
31043;SDS011;17710;52.520;13.352;2023-01-28T14:43:35;2.95;;;0.80;;
31043;SDS011;17710;52.520;13.352;2023-01-28T14:46:07;1.65;;;0.75;;
31043;SDS011;17710;52.520;13.352;2023-01-28T14:48:46;1.70;;;0.80;;
31043;SDS011;17710;52.520;13.352;2023-01-28T14:51:33;1.50;;;0.68;;
31043;SDS011;17710;52.520;13.352;2023-01-28T14:57:23;2.75;;;0.80;;
31043;SDS011;17710;52.520;13.352;2023-01-28T15:00:01;1.70;;;0.98;;
31043;SDS011;17710;52.520;13.352;2023-01-28T15:02:32;1.85;;;0.93;;
31043;SDS011;17710;52.520;13.352;2023-01-28T15:05:09;1.77;;;0.70;;
31043;SDS011;17710;52.520;13.352;2023-01-28T15:07:42;1.52;;;0.70;;
31043;SDS011;17710;52.520;13.352;2023-01-28T15:10:13;2.15;;;0.70;;
31043;SDS011;17710;52.520;13.352;2023-01-28T15:12:43;1.52;;;0.85;;